createdAt,value
2022-11-25T00:02:59.361Z,100.00
2022-11-25T00:08:01.095Z,100.00
2022-11-25T00:13:03.909Z,100.00
2022-11-25T00:18:05.653Z,100.00
2022-11-25T00:23:07.305Z,100.00
2022-11-25T00:28:08.967Z,100.00
2022-11-25T00:33:10.632Z,100.00
2022-11-25T00:38:12.295Z,100.00
2022-11-25T00:43:32.504Z,100.00
2022-11-25T00:48:34.172Z,100.00
2022-11-25T00:53:35.853Z,100.00
2022-11-25T00:58:37.676Z,100.00
2022-11-25T01:03:39.586Z,100.00
2022-11-25T01:08:41.379Z,100.00
2022-11-25T01:13:43.142Z,100.00
2022-11-25T01:18:45.436Z,100.00
2022-11-25T01:23:48.617Z,100.00
2022-11-25T01:28:55.010Z,100.00
2022-11-25T01:34:00.193Z,100.00
2022-11-25T01:39:01.921Z,100.00
2022-11-25T01:44:21.019Z,100.00
2022-11-25T01:49:29.172Z,100.00
2022-11-25T01:54:35.621Z,100.00
2022-11-25T01:59:41.994Z,100.00
2022-11-25T02:04:44.927Z,100.00
2022-11-25T02:09:47.503Z,100.00
2022-11-25T02:14:51.985Z,100.00
2022-11-25T02:20:01.374Z,100.00
2022-11-25T02:25:22.284Z,100.00
2022-11-25T02:30:24.121Z,100.00
2022-11-25T02:35:30.948Z,100.00
2022-11-25T02:40:36.360Z,100.00
2022-11-25T02:45:53.022Z,100.00
2022-11-25T02:50:55.578Z,100.00
2022-11-25T02:55:57.350Z,100.00
2022-11-25T03:00:59.104Z,100.00
2022-11-25T03:06:01.136Z,100.00
2022-11-25T03:11:02.867Z,100.00
2022-11-25T03:16:05.071Z,100.00
2022-11-25T03:21:07.515Z,100.00
2022-11-25T03:26:10.025Z,100.00
2022-11-25T03:31:12.284Z,100.00
2022-11-25T03:36:14.113Z,100.00
2022-11-25T03:41:15.908Z,100.00
2022-11-25T03:46:18.658Z,100.00
2022-11-25T03:51:21.287Z,100.00
2022-11-25T03:56:23.762Z,100.00
2022-11-25T04:01:25.662Z,100.00
2022-11-25T04:06:27.567Z,100.00
2022-11-25T04:11:48.380Z,100.00
2022-11-25T04:16:50.774Z,100.00
2022-11-25T04:21:53.227Z,100.00
2022-11-25T04:26:55.340Z,100.00
2022-11-25T04:31:57.041Z,99.31
2022-11-25T04:36:59.356Z,98.57
2022-11-25T04:42:20.300Z,98.26
2022-11-25T04:47:22.079Z,97.88
2022-11-25T04:52:24.415Z,98.40
2022-11-25T04:57:27.673Z,99.88
2022-11-25T05:02:29.804Z,100.00
2022-11-25T05:07:40.840Z,100.00
2022-11-25T05:12:42.799Z,100.00
2022-11-25T05:17:48.310Z,100.00
2022-11-25T05:22:54.420Z,100.00
2022-11-25T05:27:57.396Z,100.00
2022-11-25T05:32:59.254Z,100.00
2022-11-25T05:38:04.044Z,100.00
2022-11-25T05:43:06.045Z,100.00
2022-11-25T05:48:10.610Z,100.00
2022-11-25T05:53:12.554Z,100.00
2022-11-25T05:58:16.051Z,100.00
2022-11-25T06:03:26.103Z,100.00
2022-11-25T06:08:28.449Z,100.00
2022-11-25T06:13:32.285Z,100.00
2022-11-25T06:18:34.082Z,100.00
2022-11-25T06:23:38.847Z,100.00
2022-11-25T06:28:40.731Z,100.00
2022-11-25T06:33:43.223Z,100.00
2022-11-25T06:38:51.948Z,100.00
2022-11-25T06:43:53.645Z,100.00
2022-11-25T06:48:55.380Z,100.00
2022-11-25T06:53:57.099Z,100.00
2022-11-25T06:58:58.805Z,100.00
2022-11-25T07:04:03.802Z,100.00
2022-11-25T07:09:06.199Z,100.00
2022-11-25T07:14:13.259Z,100.00
2022-11-25T07:19:16.910Z,100.00
2022-11-25T07:24:18.788Z,100.00
2022-11-25T07:29:51.577Z,100.00
2022-11-25T07:34:42.702Z,100.00
2022-11-25T07:39:44.391Z,100.00
2022-11-25T07:44:46.081Z,100.00
2022-11-25T07:50:26.258Z,100.00
2022-11-25T07:55:27.995Z,100.00
2022-11-25T08:00:29.679Z,100.00
2022-11-25T08:05:33.404Z,100.00
2022-11-25T08:10:35.122Z,100.00
2022-11-25T08:15:36.838Z,100.00
2022-11-25T08:20:38.629Z,100.00
2022-11-25T08:25:43.018Z,100.00
2022-11-25T08:30:47.993Z,100.00
2022-11-25T08:35:55.672Z,100.00
2022-11-25T08:40:57.788Z,100.00
2022-11-25T08:45:59.548Z,100.00
2022-11-25T08:51:01.257Z,100.00
2022-11-25T08:56:03.008Z,100.00
2022-11-25T09:01:06.765Z,99.29
2022-11-25T09:06:09.572Z,97.88
2022-11-25T09:11:12.044Z,97.69
2022-11-25T09:16:15.273Z,96.63
2022-11-25T09:21:17.926Z,96.64
2022-11-25T09:26:25.618Z,96.49
2022-11-25T09:31:27.470Z,95.98
2022-11-25T09:36:29.202Z,95.46
2022-11-25T09:42:15.030Z,94.58
2022-11-25T09:47:48.325Z,91.92
2022-11-25T09:53:40.058Z,81.92
2022-11-25T09:59:13.755Z,72.96
2022-11-25T10:04:25.994Z,73.83
2022-11-25T10:09:34.666Z,67.48
2022-11-25T10:14:46.614Z,64.83
2022-11-25T10:19:56.826Z,64.50
2022-11-25T10:25:02.150Z,60.63
2022-11-25T10:30:15.442Z,61.57
2022-11-25T10:35:39.141Z,54.36
2022-11-25T10:40:45.217Z,60.91
2022-11-25T10:45:57.393Z,60.81
2022-11-25T10:51:29.293Z,61.82
2022-11-25T10:56:30.995Z,58.23
2022-11-25T11:01:32.741Z,61.03
2022-11-25T11:06:42.446Z,58.51
2022-11-25T11:11:49.289Z,59.81
2022-11-25T11:16:55.777Z,57.56
2022-11-25T11:22:15.986Z,59.59
2022-11-25T11:27:25.469Z,58.67
2022-11-25T11:32:29.163Z,61.31
2022-11-25T11:37:45.927Z,60.56
2022-11-25T11:43:02.813Z,58.08
2022-11-25T11:48:30.851Z,62.17
2022-11-25T11:54:30.841Z,64.33
2022-11-25T12:00:00.216Z,66.95
2022-11-25T12:05:12.910Z,66.62
2022-11-25T12:10:14.546Z,69.04
2022-11-25T12:15:37.735Z,69.41
2022-11-25T12:20:57.492Z,68.82
2022-11-25T12:26:06.138Z,69.96
2022-11-25T12:31:47.685Z,68.77
2022-11-25T12:36:49.412Z,68.14
2022-11-25T12:41:59.823Z,68.23
2022-11-25T12:47:01.938Z,68.15
2022-11-25T12:52:28.883Z,65.52
2022-11-25T12:57:41.975Z,63.91
2022-11-25T13:03:24.361Z,65.97
2022-11-25T13:08:44.464Z,63.91
2022-11-25T13:14:12.953Z,65.92
2022-11-25T13:19:19.361Z,66.64
2022-11-25T13:24:34.879Z,68.71
2022-11-25T13:29:39.546Z,69.78
2022-11-25T13:34:41.287Z,69.98
2022-11-25T13:39:46.202Z,72.44
2022-11-25T13:44:54.211Z,72.37
2022-11-25T13:50:07.351Z,73.69
2022-11-25T13:55:33.345Z,74.82
2022-11-25T14:00:37.751Z,75.08
2022-11-25T14:05:45.288Z,76.36
2022-11-25T14:11:11.356Z,77.38
2022-11-25T14:16:36.032Z,77.69
2022-11-25T14:22:03.952Z,80.33
2022-11-25T14:27:14.160Z,78.92
2022-11-25T14:32:44.136Z,78.58
2022-11-25T14:37:51.781Z,78.77
2022-11-25T14:43:02.399Z,83.91
2022-11-25T14:48:24.411Z,86.64
2022-11-25T14:53:26.632Z,88.70
2022-11-25T14:58:29.460Z,90.11
2022-11-25T15:03:31.553Z,91.98
2022-11-25T15:08:42.784Z,93.41
2022-11-25T15:13:51.637Z,96.08
2022-11-25T15:18:57.368Z,97.87
2022-11-25T15:23:59.513Z,99.03
2022-11-25T15:29:10.370Z,100.00
2022-11-25T15:34:14.157Z,100.00
2022-11-25T15:39:21.821Z,100.00
2022-11-25T15:44:38.606Z,100.00
2022-11-25T15:49:40.453Z,99.15
2022-11-25T15:54:48.706Z,100.00
2022-11-25T15:59:53.372Z,100.00
2022-11-25T16:05:13.052Z,100.00
2022-11-25T16:10:28.690Z,100.00
2022-11-25T16:15:58.649Z,100.00
2022-11-25T16:21:08.639Z,100.00
2022-11-25T16:26:13.243Z,100.00
2022-11-25T16:31:16.815Z,100.00
2022-11-25T16:36:19.275Z,100.00
2022-11-25T16:41:24.723Z,100.00
2022-11-25T16:46:26.797Z,100.00
2022-11-25T16:51:28.510Z,100.00
2022-11-25T16:56:30.294Z,100.00
2022-11-25T17:01:34.402Z,100.00
2022-11-25T17:06:37.348Z,100.00
2022-11-25T17:11:46.956Z,100.00
2022-11-25T17:16:48.936Z,100.00
2022-11-25T17:21:50.674Z,100.00
2022-11-25T17:27:00.477Z,100.00
2022-11-25T17:32:03.003Z,100.00
2022-11-25T17:37:12.349Z,100.00
2022-11-25T17:42:18.649Z,100.00
2022-11-25T17:47:20.457Z,100.00
2022-11-25T17:52:22.127Z,100.00
2022-11-25T17:57:29.190Z,100.00
2022-11-25T18:02:31.080Z,100.00
2022-11-25T18:07:32.861Z,100.00
2022-11-25T18:12:36.688Z,100.00
2022-11-25T18:17:39.282Z,100.00
2022-11-25T18:22:40.970Z,100.00
2022-11-25T18:27:44.340Z,100.00
2022-11-25T18:32:46.080Z,100.00
2022-11-25T18:37:48.475Z,100.00
2022-11-25T18:42:54.663Z,100.00
2022-11-25T18:47:56.376Z,100.00
2022-11-25T18:52:58.044Z,100.00
2022-11-25T18:58:01.080Z,100.00
2022-11-25T19:03:02.887Z,100.00
2022-11-25T19:08:04.961Z,100.00
2022-11-25T19:13:15.319Z,100.00
2022-11-25T19:18:25.490Z,100.00
2022-11-25T19:23:28.864Z,100.00
2022-11-25T19:28:31.492Z,100.00
2022-11-25T19:33:36.869Z,100.00
2022-11-25T19:38:38.536Z,100.00
2022-11-25T19:43:40.334Z,100.00
2022-11-25T19:48:42.108Z,100.00
2022-11-25T19:53:44.440Z,100.00
2022-11-25T19:58:46.127Z,100.00
2022-11-25T20:03:50.515Z,100.00
2022-11-25T20:08:52.277Z,100.00
2022-11-25T20:13:53.943Z,100.00
2022-11-25T20:18:55.718Z,100.00
2022-11-25T20:23:57.844Z,100.00
2022-11-25T20:28:59.665Z,100.00
2022-11-25T20:34:01.331Z,100.00
2022-11-25T20:39:04.170Z,100.00
2022-11-25T20:44:05.873Z,100.00
2022-11-25T20:49:20.923Z,100.00
2022-11-25T20:54:25.635Z,100.00
2022-11-25T20:59:28.724Z,100.00
2022-11-25T21:04:30.431Z,100.00
2022-11-25T21:09:34.890Z,100.00
2022-11-25T21:14:36.769Z,100.00
2022-11-25T21:19:38.581Z,100.00
2022-11-25T21:24:42.440Z,100.00
2022-11-25T21:29:45.658Z,100.00
2022-11-25T21:34:47.829Z,100.00
2022-11-25T21:39:49.662Z,100.00
2022-11-25T21:44:52.507Z,100.00
2022-11-25T21:49:54.293Z,100.00
2022-11-25T21:54:55.989Z,100.00
2022-11-25T21:59:57.711Z,100.00
2022-11-25T22:04:59.467Z,100.00
2022-11-25T22:10:01.142Z,100.00
2022-11-25T22:15:03.139Z,100.00
2022-11-25T22:20:14.300Z,100.00
2022-11-25T22:25:16.168Z,100.00
2022-11-25T22:30:19.854Z,100.00
2022-11-25T22:35:21.588Z,100.00
2022-11-25T22:40:24.015Z,100.00
2022-11-25T22:45:32.782Z,100.00
2022-11-25T22:50:35.205Z,100.00
2022-11-25T22:55:36.904Z,100.00
2022-11-25T23:00:42.692Z,100.00
2022-11-25T23:05:44.543Z,100.00
2022-11-25T23:10:48.345Z,100.00
2022-11-25T23:15:56.124Z,100.00
2022-11-25T23:20:57.934Z,100.00
2022-11-25T23:25:59.816Z,100.00
2022-11-25T23:31:02.062Z,100.00
2022-11-25T23:36:10.748Z,100.00
2022-11-25T23:41:19.039Z,100.00
2022-11-25T23:46:23.909Z,100.00
2022-11-25T23:51:28.255Z,100.00
2022-11-25T23:56:29.980Z,100.00
